sensor_id;sensor_type;location;lat;lon;timestamp;P1;durP1;ratioP1;P2;durP2;ratioP2
51558;SDS011;61650;48.882;2.092;2023-02-11T00:01:34;30.40;;;23.80;;
51558;SDS011;61650;48.882;2.092;2023-02-11T00:04:01;36.53;;;24.95;;
51558;SDS011;61650;48.882;2.092;2023-02-11T00:06:28;36.95;;;25.58;;
51558;SDS011;61650;48.882;2.092;2023-02-11T00:08:55;35.03;;;23.92;;
51558;SDS011;61650;48.882;2.092;2023-02-11T00:11:21;36.33;;;23.30;;
51558;SDS011;61650;48.882;2.092;2023-02-11T00:13:49;36.17;;;24.35;;
51558;SDS011;61650;48.882;2.092;2023-02-11T00:16:16;31.07;;;22.40;;
51558;SDS011;61650;48.882;2.092;2023-02-11T00:18:43;38.30;;;23.58;;
51558;SDS011;61650;48.882;2.092;2023-02-11T00:21:14;35.97;;;22.73;;
51558;SDS011;61650;48.882;2.092;2023-02-11T00:23:41;34.15;;;23.60;;
51558;SDS011;61650;48.882;2.092;2023-02-11T00:26:26;34.67;;;24.23;;
51558;SDS011;61650;48.882;2.092;2023-02-11T00:28:54;36.50;;;24.85;;
51558;SDS011;61650;48.882;2.092;2023-02-11T00:31:21;34.63;;;23.85;;
51558;SDS011;61650;48.882;2.092;2023-02-11T00:33:48;36.78;;;23.52;;
51558;SDS011;61650;48.882;2.092;2023-02-11T00:36:15;38.35;;;23.10;;
51558;SDS011;61650;48.882;2.092;2023-02-11T00:38:43;36.47;;;23.25;;
51558;SDS011;61650;48.882;2.092;2023-02-11T00:41:09;39.50;;;24.70;;
51558;SDS011;61650;48.882;2.092;2023-02-11T00:43:37;36.42;;;23.58;;
51558;SDS011;61650;48.882;2.092;2023-02-11T00:46:03;39.53;;;25.08;;
51558;SDS011;61650;48.882;2.092;2023-02-11T00:48:28;39.93;;;25.07;;
51558;SDS011;61650;48.882;2.092;2023-02-11T00:50:54;33.10;;;22.83;;
51558;SDS011;61650;48.882;2.092;2023-02-11T00:53:20;34.80;;;24.20;;
51558;SDS011;61650;48.882;2.092;2023-02-11T00:55:45;39.20;;;25.47;;
51558;SDS011;61650;48.882;2.092;2023-02-11T00:58:11;37.37;;;24.10;;
51558;SDS011;61650;48.882;2.092;2023-02-11T01:00:36;40.03;;;23.60;;
51558;SDS011;61650;48.882;2.092;2023-02-11T01:03:02;39.33;;;24.30;;
51558;SDS011;61650;48.882;2.092;2023-02-11T01:05:28;33.60;;;23.50;;
51558;SDS011;61650;48.882;2.092;2023-02-11T01:07:53;35.17;;;24.37;;
51558;SDS011;61650;48.882;2.092;2023-02-11T01:10:19;29.83;;;23.20;;
51558;SDS011;61650;48.882;2.092;2023-02-11T01:12:45;37.77;;;24.03;;
51558;SDS011;61650;48.882;2.092;2023-02-11T01:15:11;32.17;;;23.23;;
51558;SDS011;61650;48.882;2.092;2023-02-11T01:17:39;36.47;;;24.50;;
51558;SDS011;61650;48.882;2.092;2023-02-11T01:20:06;35.22;;;23.75;;
51558;SDS011;61650;48.882;2.092;2023-02-11T01:22:35;34.17;;;23.75;;
51558;SDS011;61650;48.882;2.092;2023-02-11T01:25:03;38.10;;;24.60;;
51558;SDS011;61650;48.882;2.092;2023-02-11T01:27:29;39.80;;;24.45;;
51558;SDS011;61650;48.882;2.092;2023-02-11T01:29:55;35.80;;;24.00;;
51558;SDS011;61650;48.882;2.092;2023-02-11T01:32:21;36.23;;;24.03;;
51558;SDS011;61650;48.882;2.092;2023-02-11T01:34:46;38.43;;;23.67;;
51558;SDS011;61650;48.882;2.092;2023-02-11T01:37:12;38.23;;;24.47;;
51558;SDS011;61650;48.882;2.092;2023-02-11T01:39:37;36.07;;;21.60;;
51558;SDS011;61650;48.882;2.092;2023-02-11T01:42:03;33.80;;;22.77;;
51558;SDS011;61650;48.882;2.092;2023-02-11T01:47:00;33.08;;;23.48;;
51558;SDS011;61650;48.882;2.092;2023-02-11T01:49:35;34.58;;;23.00;;
51558;SDS011;61650;48.882;2.092;2023-02-11T01:55:05;35.92;;;22.33;;
51558;SDS011;61650;48.882;2.092;2023-02-11T01:57:53;31.52;;;21.73;;
51558;SDS011;61650;48.882;2.092;2023-02-11T02:00:34;33.67;;;22.60;;
51558;SDS011;61650;48.882;2.092;2023-02-11T02:03:10;42.22;;;22.40;;
51558;SDS011;61650;48.882;2.092;2023-02-11T02:05:42;30.77;;;21.42;;
51558;SDS011;61650;48.882;2.092;2023-02-11T02:08:18;33.58;;;21.20;;
51558;SDS011;61650;48.882;2.092;2023-02-11T02:10:50;34.83;;;21.52;;
51558;SDS011;61650;48.882;2.092;2023-02-11T02:13:20;31.63;;;22.48;;
51558;SDS011;61650;48.882;2.092;2023-02-11T02:15:48;30.58;;;21.42;;
51558;SDS011;61650;48.882;2.092;2023-02-11T02:22:05;34.17;;;21.60;;
51558;SDS011;61650;48.882;2.092;2023-02-11T02:29:49;30.73;;;21.15;;
51558;SDS011;61650;48.882;2.092;2023-02-11T02:35:33;30.73;;;21.02;;
51558;SDS011;61650;48.882;2.092;2023-02-11T02:38:20;33.88;;;21.65;;
51558;SDS011;61650;48.882;2.092;2023-02-11T02:40:53;29.88;;;20.90;;
51558;SDS011;61650;48.882;2.092;2023-02-11T02:43:41;34.80;;;21.13;;
51558;SDS011;61650;48.882;2.092;2023-02-11T02:48:44;33.50;;;21.83;;
51558;SDS011;61650;48.882;2.092;2023-02-11T02:56:42;28.25;;;19.65;;
51558;SDS011;61650;48.882;2.092;2023-02-11T02:59:26;29.23;;;20.15;;
51558;SDS011;61650;48.882;2.092;2023-02-11T03:02:14;29.55;;;19.55;;
51558;SDS011;61650;48.882;2.092;2023-02-11T03:05:03;31.60;;;19.77;;
51558;SDS011;61650;48.882;2.092;2023-02-11T03:10:18;31.98;;;20.00;;
51558;SDS011;61650;48.882;2.092;2023-02-11T03:12:50;29.80;;;20.30;;
51558;SDS011;61650;48.882;2.092;2023-02-11T03:15:17;30.45;;;19.50;;
51558;SDS011;61650;48.882;2.092;2023-02-11T03:17:46;37.47;;;21.27;;
51558;SDS011;61650;48.882;2.092;2023-02-11T03:20:15;30.15;;;20.50;;
51558;SDS011;61650;48.882;2.092;2023-02-11T03:25:37;29.75;;;19.50;;
51558;SDS011;61650;48.882;2.092;2023-02-11T03:28:24;31.98;;;20.55;;
51558;SDS011;61650;48.882;2.092;2023-02-11T03:30:54;30.40;;;19.88;;
51558;SDS011;61650;48.882;2.092;2023-02-11T03:33:43;30.85;;;19.95;;
51558;SDS011;61650;48.882;2.092;2023-02-11T03:36:19;31.45;;;20.35;;
51558;SDS011;61650;48.882;2.092;2023-02-11T03:38:53;29.15;;;18.63;;
51558;SDS011;61650;48.882;2.092;2023-02-11T03:41:22;27.63;;;18.30;;
51558;SDS011;61650;48.882;2.092;2023-02-11T03:43:53;27.95;;;18.13;;
51558;SDS011;61650;48.882;2.092;2023-02-11T03:46:27;27.33;;;17.83;;
51558;SDS011;61650;48.882;2.092;2023-02-11T03:49:04;25.98;;;17.88;;
51558;SDS011;61650;48.882;2.092;2023-02-11T03:51:33;27.73;;;17.80;;
51558;SDS011;61650;48.882;2.092;2023-02-11T03:54:01;26.88;;;18.00;;
51558;SDS011;61650;48.882;2.092;2023-02-11T03:56:30;26.55;;;16.95;;
51558;SDS011;61650;48.882;2.092;2023-02-11T03:59:04;26.63;;;16.80;;
51558;SDS011;61650;48.882;2.092;2023-02-11T04:01:31;29.50;;;17.27;;
51558;SDS011;61650;48.882;2.092;2023-02-11T04:03:57;25.90;;;18.23;;
51558;SDS011;61650;48.882;2.092;2023-02-11T04:06:22;25.20;;;17.40;;
51558;SDS011;61650;48.882;2.092;2023-02-11T04:08:48;26.57;;;17.63;;
51558;SDS011;61650;48.882;2.092;2023-02-11T04:11:13;26.67;;;16.30;;
51558;SDS011;61650;48.882;2.092;2023-02-11T04:13:39;28.10;;;16.90;;
51558;SDS011;61650;48.882;2.092;2023-02-11T04:16:04;22.80;;;15.20;;
51558;SDS011;61650;48.882;2.092;2023-02-11T04:18:30;26.90;;;16.10;;
51558;SDS011;61650;48.882;2.092;2023-02-11T04:20:56;26.53;;;16.60;;
51558;SDS011;61650;48.882;2.092;2023-02-11T04:23:21;24.93;;;16.20;;
51558;SDS011;61650;48.882;2.092;2023-02-11T04:25:49;25.23;;;16.03;;
51558;SDS011;61650;48.882;2.092;2023-02-11T04:28:15;25.95;;;16.90;;
51558;SDS011;61650;48.882;2.092;2023-02-11T04:30:40;31.60;;;15.90;;
51558;SDS011;61650;48.882;2.092;2023-02-11T04:33:06;20.07;;;14.00;;
51558;SDS011;61650;48.882;2.092;2023-02-11T04:35:32;25.70;;;16.03;;
51558;SDS011;61650;48.882;2.092;2023-02-11T04:37:57;24.73;;;14.00;;
51558;SDS011;61650;48.882;2.092;2023-02-11T04:40:23;25.30;;;14.30;;
51558;SDS011;61650;48.882;2.092;2023-02-11T04:42:48;21.50;;;14.40;;
51558;SDS011;61650;48.882;2.092;2023-02-11T04:45:14;20.90;;;13.77;;
51558;SDS011;61650;48.882;2.092;2023-02-11T04:47:39;23.33;;;14.37;;
51558;SDS011;61650;48.882;2.092;2023-02-11T04:50:05;20.20;;;14.57;;
51558;SDS011;61650;48.882;2.092;2023-02-11T04:52:31;23.77;;;14.10;;
51558;SDS011;61650;48.882;2.092;2023-02-11T04:54:56;21.63;;;14.70;;
51558;SDS011;61650;48.882;2.092;2023-02-11T04:57:22;22.90;;;15.10;;
51558;SDS011;61650;48.882;2.092;2023-02-11T04:59:47;24.20;;;14.57;;
51558;SDS011;61650;48.882;2.092;2023-02-11T05:02:13;24.77;;;13.93;;
51558;SDS011;61650;48.882;2.092;2023-02-11T05:04:38;23.13;;;13.93;;
51558;SDS011;61650;48.882;2.092;2023-02-11T05:07:04;26.40;;;15.10;;
51558;SDS011;61650;48.882;2.092;2023-02-11T05:09:30;20.83;;;13.97;;
51558;SDS011;61650;48.882;2.092;2023-02-11T05:11:55;21.10;;;14.10;;
51558;SDS011;61650;48.882;2.092;2023-02-11T05:14:21;24.00;;;14.00;;
51558;SDS011;61650;48.882;2.092;2023-02-11T05:16:46;24.17;;;14.67;;
51558;SDS011;61650;48.882;2.092;2023-02-11T05:19:12;22.27;;;13.70;;
51558;SDS011;61650;48.882;2.092;2023-02-11T05:21:37;23.17;;;13.50;;
51558;SDS011;61650;48.882;2.092;2023-02-11T05:24:03;27.23;;;14.47;;
51558;SDS011;61650;48.882;2.092;2023-02-11T05:26:29;19.60;;;13.00;;
51558;SDS011;61650;48.882;2.092;2023-02-11T05:28:55;25.80;;;14.33;;
51558;SDS011;61650;48.882;2.092;2023-02-11T05:31:20;20.52;;;13.50;;
51558;SDS011;61650;48.882;2.092;2023-02-11T05:33:46;22.53;;;13.40;;
51558;SDS011;61650;48.882;2.092;2023-02-11T05:36:12;18.90;;;12.50;;
51558;SDS011;61650;48.882;2.092;2023-02-11T05:38:37;18.73;;;12.97;;
51558;SDS011;61650;48.882;2.092;2023-02-11T05:41:04;20.92;;;13.70;;
51558;SDS011;61650;48.882;2.092;2023-02-11T05:43:30;22.65;;;15.07;;
51558;SDS011;61650;48.882;2.092;2023-02-11T05:45:56;20.10;;;14.13;;
51558;SDS011;61650;48.882;2.092;2023-02-11T05:48:22;20.63;;;12.70;;
51558;SDS011;61650;48.882;2.092;2023-02-11T05:50:48;21.23;;;13.17;;
51558;SDS011;61650;48.882;2.092;2023-02-11T05:53:13;23.00;;;13.67;;
51558;SDS011;61650;48.882;2.092;2023-02-11T05:55:39;20.83;;;14.20;;
51558;SDS011;61650;48.882;2.092;2023-02-11T05:58:05;24.80;;;14.40;;
51558;SDS011;61650;48.882;2.092;2023-02-11T06:00:31;21.92;;;13.60;;
51558;SDS011;61650;48.882;2.092;2023-02-11T06:02:57;23.30;;;14.05;;
51558;SDS011;61650;48.882;2.092;2023-02-11T06:05:23;20.20;;;13.63;;
51558;SDS011;61650;48.882;2.092;2023-02-11T06:07:49;20.03;;;12.87;;
51558;SDS011;61650;48.882;2.092;2023-02-11T06:10:14;20.00;;;13.77;;
51558;SDS011;61650;48.882;2.092;2023-02-11T06:12:40;18.70;;;14.10;;
51558;SDS011;61650;48.882;2.092;2023-02-11T06:15:05;19.07;;;13.50;;
51558;SDS011;61650;48.882;2.092;2023-02-11T06:17:31;22.52;;;13.65;;
51558;SDS011;61650;48.882;2.092;2023-02-11T06:20:01;21.17;;;13.43;;
51558;SDS011;61650;48.882;2.092;2023-02-11T06:22:28;20.17;;;12.57;;
51558;SDS011;61650;48.882;2.092;2023-02-11T06:24:53;18.10;;;11.80;;
51558;SDS011;61650;48.882;2.092;2023-02-11T06:27:19;20.30;;;13.87;;
51558;SDS011;61650;48.882;2.092;2023-02-11T06:29:45;20.73;;;13.07;;
51558;SDS011;61650;48.882;2.092;2023-02-11T06:32:11;18.98;;;13.40;;
51558;SDS011;61650;48.882;2.092;2023-02-11T06:34:37;23.80;;;13.03;;
51558;SDS011;61650;48.882;2.092;2023-02-11T06:37:03;20.67;;;12.67;;
51558;SDS011;61650;48.882;2.092;2023-02-11T06:39:29;18.73;;;12.83;;
51558;SDS011;61650;48.882;2.092;2023-02-11T06:41:54;20.83;;;12.90;;
51558;SDS011;61650;48.882;2.092;2023-02-11T06:44:20;22.33;;;12.23;;
51558;SDS011;61650;48.882;2.092;2023-02-11T06:46:46;25.87;;;14.90;;
51558;SDS011;61650;48.882;2.092;2023-02-11T06:49:12;21.17;;;13.40;;
51558;SDS011;61650;48.882;2.092;2023-02-11T06:51:38;20.90;;;13.32;;
51558;SDS011;61650;48.882;2.092;2023-02-11T06:54:04;20.57;;;13.47;;
51558;SDS011;61650;48.882;2.092;2023-02-11T06:56:30;22.05;;;13.18;;
51558;SDS011;61650;48.882;2.092;2023-02-11T06:58:56;20.30;;;14.35;;
51558;SDS011;61650;48.882;2.092;2023-02-11T07:01:23;21.60;;;13.90;;
51558;SDS011;61650;48.882;2.092;2023-02-11T07:03:49;21.60;;;13.90;;
51558;SDS011;61650;48.882;2.092;2023-02-11T07:06:19;22.93;;;13.57;;
51558;SDS011;61650;48.882;2.092;2023-02-11T07:08:47;23.63;;;14.10;;
51558;SDS011;61650;48.882;2.092;2023-02-11T07:11:14;20.57;;;12.37;;
51558;SDS011;61650;48.882;2.092;2023-02-11T07:13:41;28.05;;;14.40;;
51558;SDS011;61650;48.882;2.092;2023-02-11T07:16:08;20.33;;;13.90;;
51558;SDS011;61650;48.882;2.092;2023-02-11T07:18:35;23.23;;;14.10;;
51558;SDS011;61650;48.882;2.092;2023-02-11T07:21:04;22.17;;;14.33;;
51558;SDS011;61650;48.882;2.092;2023-02-11T07:23:31;22.15;;;13.32;;
51558;SDS011;61650;48.882;2.092;2023-02-11T07:26:01;24.30;;;13.50;;
51558;SDS011;61650;48.882;2.092;2023-02-11T07:28:37;20.58;;;14.27;;
51558;SDS011;61650;48.882;2.092;2023-02-11T07:31:07;23.85;;;14.27;;
51558;SDS011;61650;48.882;2.092;2023-02-11T07:33:38;24.75;;;15.32;;
51558;SDS011;61650;48.882;2.092;2023-02-11T07:36:05;38.40;;;26.00;;
51558;SDS011;61650;48.882;2.092;2023-02-11T07:38:32;105.20;;;58.58;;
51558;SDS011;61650;48.882;2.092;2023-02-11T07:41:03;293.55;;;132.57;;
51558;SDS011;61650;48.882;2.092;2023-02-11T07:43:30;120.80;;;53.38;;
51558;SDS011;61650;48.882;2.092;2023-02-11T07:45:56;94.80;;;44.90;;
51558;SDS011;61650;48.882;2.092;2023-02-11T07:48:22;78.00;;;36.33;;
51558;SDS011;61650;48.882;2.092;2023-02-11T07:50:48;50.67;;;26.63;;
51558;SDS011;61650;48.882;2.092;2023-02-11T07:53:14;38.43;;;21.77;;
51558;SDS011;61650;48.882;2.092;2023-02-11T07:55:39;27.90;;;17.60;;
51558;SDS011;61650;48.882;2.092;2023-02-11T07:58:07;40.28;;;27.27;;
51558;SDS011;61650;48.882;2.092;2023-02-11T08:00:32;33.90;;;22.57;;
51558;SDS011;61650;48.882;2.092;2023-02-11T08:02:58;43.93;;;29.77;;
51558;SDS011;61650;48.882;2.092;2023-02-11T08:05:24;44.60;;;31.33;;
51558;SDS011;61650;48.882;2.092;2023-02-11T08:07:50;48.30;;;33.50;;
51558;SDS011;61650;48.882;2.092;2023-02-11T08:10:17;45.38;;;33.97;;
51558;SDS011;61650;48.882;2.092;2023-02-11T08:12:43;29.23;;;18.70;;
51558;SDS011;61650;48.882;2.092;2023-02-11T08:15:08;29.37;;;19.37;;
51558;SDS011;61650;48.882;2.092;2023-02-11T08:17:34;28.87;;;20.63;;
51558;SDS011;61650;48.882;2.092;2023-02-11T08:20:00;28.83;;;21.55;;
51558;SDS011;61650;48.882;2.092;2023-02-11T08:22:29;31.67;;;20.73;;
51558;SDS011;61650;48.882;2.092;2023-02-11T08:24:56;29.63;;;18.65;;
51558;SDS011;61650;48.882;2.092;2023-02-11T08:27:22;28.13;;;19.25;;
51558;SDS011;61650;48.882;2.092;2023-02-11T08:29:48;29.07;;;19.40;;
51558;SDS011;61650;48.882;2.092;2023-02-11T08:32:13;54.97;;;30.67;;
51558;SDS011;61650;48.882;2.092;2023-02-11T08:34:39;160.77;;;69.67;;
51558;SDS011;61650;48.882;2.092;2023-02-11T08:37:05;79.57;;;39.70;;
51558;SDS011;61650;48.882;2.092;2023-02-11T08:39:30;26.07;;;18.60;;
51558;SDS011;61650;48.882;2.092;2023-02-11T08:41:56;30.47;;;19.53;;
51558;SDS011;61650;48.882;2.092;2023-02-11T08:44:22;27.60;;;18.70;;
51558;SDS011;61650;48.882;2.092;2023-02-11T08:46:48;28.27;;;20.58;;
51558;SDS011;61650;48.882;2.092;2023-02-11T08:49:14;28.48;;;19.80;;
51558;SDS011;61650;48.882;2.092;2023-02-11T08:51:40;27.33;;;19.45;;
51558;SDS011;61650;48.882;2.092;2023-02-11T08:54:06;26.57;;;18.50;;
51558;SDS011;61650;48.882;2.092;2023-02-11T08:56:33;27.45;;;20.63;;
51558;SDS011;61650;48.882;2.092;2023-02-11T08:59:00;29.25;;;22.58;;
51558;SDS011;61650;48.882;2.092;2023-02-11T09:01:26;30.07;;;21.03;;
51558;SDS011;61650;48.882;2.092;2023-02-11T09:03:53;33.15;;;22.80;;
51558;SDS011;61650;48.882;2.092;2023-02-11T09:06:19;31.73;;;21.55;;
51558;SDS011;61650;48.882;2.092;2023-02-11T09:08:47;29.85;;;21.88;;
51558;SDS011;61650;48.882;2.092;2023-02-11T09:11:15;30.25;;;21.50;;
51558;SDS011;61650;48.882;2.092;2023-02-11T09:13:42;30.33;;;21.55;;
51558;SDS011;61650;48.882;2.092;2023-02-11T09:16:14;32.45;;;21.90;;
51558;SDS011;61650;48.882;2.092;2023-02-11T09:18:45;35.35;;;22.67;;
51558;SDS011;61650;48.882;2.092;2023-02-11T09:21:11;28.10;;;20.67;;
51558;SDS011;61650;48.882;2.092;2023-02-11T09:23:38;30.20;;;20.00;;
51558;SDS011;61650;48.882;2.092;2023-02-11T09:28:32;33.17;;;22.23;;
51558;SDS011;61650;48.882;2.092;2023-02-11T09:30:58;33.37;;;21.80;;
51558;SDS011;61650;48.882;2.092;2023-02-11T09:33:23;37.50;;;22.20;;
51558;SDS011;61650;48.882;2.092;2023-02-11T09:35:49;34.40;;;23.30;;
51558;SDS011;61650;48.882;2.092;2023-02-11T09:38:14;35.73;;;23.37;;
51558;SDS011;61650;48.882;2.092;2023-02-11T09:40:41;33.00;;;22.70;;
51558;SDS011;61650;48.882;2.092;2023-02-11T09:43:10;33.67;;;22.92;;
51558;SDS011;61650;48.882;2.092;2023-02-11T09:45:45;33.25;;;21.33;;
51558;SDS011;61650;48.882;2.092;2023-02-11T09:48:13;29.60;;;21.58;;
51558;SDS011;61650;48.882;2.092;2023-02-11T09:50:46;31.83;;;23.00;;
51558;SDS011;61650;48.882;2.092;2023-02-11T09:53:25;36.05;;;23.50;;
51558;SDS011;61650;48.882;2.092;2023-02-11T09:55:56;31.35;;;22.88;;
51558;SDS011;61650;48.882;2.092;2023-02-11T09:58:28;30.95;;;22.67;;
51558;SDS011;61650;48.882;2.092;2023-02-11T10:01:07;32.83;;;22.92;;
51558;SDS011;61650;48.882;2.092;2023-02-11T10:14:17;31.83;;;22.23;;
51558;SDS011;61650;48.882;2.092;2023-02-11T10:25:17;29.65;;;21.33;;
51558;SDS011;61650;48.882;2.092;2023-02-11T10:27:58;29.48;;;21.20;;
51558;SDS011;61650;48.882;2.092;2023-02-11T10:30:36;29.83;;;21.90;;
51558;SDS011;61650;48.882;2.092;2023-02-11T10:33:09;33.08;;;21.58;;
51558;SDS011;61650;48.882;2.092;2023-02-11T10:35:40;27.42;;;20.95;;
51558;SDS011;61650;48.882;2.092;2023-02-11T10:38:07;29.90;;;22.95;;
51558;SDS011;61650;48.882;2.092;2023-02-11T10:40:34;28.08;;;21.63;;
51558;SDS011;61650;48.882;2.092;2023-02-11T10:43:02;26.77;;;20.57;;
51558;SDS011;61650;48.882;2.092;2023-02-11T10:45:41;29.05;;;20.45;;
51558;SDS011;61650;48.882;2.092;2023-02-11T10:53:41;22.55;;;16.40;;
51558;SDS011;61650;48.882;2.092;2023-02-11T10:56:09;25.55;;;17.55;;
51558;SDS011;61650;48.882;2.092;2023-02-11T10:58:39;26.13;;;18.67;;
51558;SDS011;61650;48.882;2.092;2023-02-11T11:01:10;29.05;;;19.30;;
51558;SDS011;61650;48.882;2.092;2023-02-11T11:03:38;29.08;;;20.38;;
51558;SDS011;61650;48.882;2.092;2023-02-11T11:06:11;30.45;;;22.08;;
51558;SDS011;61650;48.882;2.092;2023-02-11T11:08:39;28.27;;;21.40;;
51558;SDS011;61650;48.882;2.092;2023-02-11T11:11:16;24.90;;;20.15;;
51558;SDS011;61650;48.882;2.092;2023-02-11T11:19:42;25.63;;;18.73;;
51558;SDS011;61650;48.882;2.092;2023-02-11T11:24:21;26.58;;;17.52;;
51558;SDS011;61650;48.882;2.092;2023-02-11T11:26:59;25.60;;;15.50;;
51558;SDS011;61650;48.882;2.092;2023-02-11T11:29:48;17.50;;;13.80;;
51558;SDS011;61650;48.882;2.092;2023-02-11T11:32:26;18.07;;;12.17;;
51558;SDS011;61650;48.882;2.092;2023-02-11T11:35:01;12.90;;;11.10;;
51558;SDS011;61650;48.882;2.092;2023-02-11T11:37:34;17.37;;;11.30;;
51558;SDS011;61650;48.882;2.092;2023-02-11T11:40:08;15.90;;;11.70;;
51558;SDS011;61650;48.882;2.092;2023-02-11T11:42:35;19.47;;;15.30;;
51558;SDS011;61650;48.882;2.092;2023-02-11T11:45:15;27.33;;;19.60;;
51558;SDS011;61650;48.882;2.092;2023-02-11T11:47:53;25.33;;;17.10;;
51558;SDS011;61650;48.882;2.092;2023-02-11T11:51:03;21.77;;;16.80;;
51558;SDS011;61650;48.882;2.092;2023-02-11T11:56:21;25.40;;;20.10;;
51558;SDS011;61650;48.882;2.092;2023-02-11T11:58:50;25.90;;;18.60;;
51558;SDS011;61650;48.882;2.092;2023-02-11T12:06:40;24.03;;;16.73;;
51558;SDS011;61650;48.882;2.092;2023-02-11T12:09:29;21.20;;;16.10;;
51558;SDS011;61650;48.882;2.092;2023-02-11T12:15:10;20.67;;;14.97;;
51558;SDS011;61650;48.882;2.092;2023-02-11T12:17:56;17.13;;;12.93;;
51558;SDS011;61650;48.882;2.092;2023-02-11T12:20:45;15.37;;;12.33;;
51558;SDS011;61650;48.882;2.092;2023-02-11T12:26:15;9.90;;;7.97;;
51558;SDS011;61650;48.882;2.092;2023-02-11T12:45:13;5.20;;;1.67;;
51558;SDS011;61650;48.882;2.092;2023-02-11T12:47:59;5.43;;;2.60;;
51558;SDS011;61650;48.882;2.092;2023-02-11T12:55:52;5.23;;;4.50;;
51558;SDS011;61650;48.882;2.092;2023-02-11T12:58:22;3.43;;;2.80;;
51558;SDS011;61650;48.882;2.092;2023-02-11T13:00:56;3.60;;;2.57;;
51558;SDS011;61650;48.882;2.092;2023-02-11T13:03:36;2.20;;;2.00;;
51558;SDS011;61650;48.882;2.092;2023-02-11T13:06:13;2.47;;;2.07;;
51558;SDS011;61650;48.882;2.092;2023-02-11T13:08:45;5.00;;;4.37;;
51558;SDS011;61650;48.882;2.092;2023-02-11T13:11:19;3.20;;;2.90;;
51558;SDS011;61650;48.882;2.092;2023-02-11T13:13:55;3.30;;;2.60;;
51558;SDS011;61650;48.882;2.092;2023-02-11T13:24:52;3.77;;;3.20;;
51558;SDS011;61650;48.882;2.092;2023-02-11T13:27:41;4.13;;;2.90;;
51558;SDS011;61650;48.882;2.092;2023-02-11T13:30:35;4.73;;;2.50;;
51558;SDS011;61650;48.882;2.092;2023-02-11T13:33:05;4.93;;;3.93;;
51558;SDS011;61650;48.882;2.092;2023-02-11T13:35:46;3.73;;;3.43;;
51558;SDS011;61650;48.882;2.092;2023-02-11T13:40:56;3.47;;;3.17;;
51558;SDS011;61650;48.882;2.092;2023-02-11T13:43:35;4.07;;;2.77;;
51558;SDS011;61650;48.882;2.092;2023-02-11T13:46:08;4.70;;;3.70;;
51558;SDS011;61650;48.882;2.092;2023-02-11T13:48:37;5.70;;;4.43;;
51558;SDS011;61650;48.882;2.092;2023-02-11T13:51:10;7.03;;;4.77;;
51558;SDS011;61650;48.882;2.092;2023-02-11T13:53:53;5.00;;;4.20;;
51558;SDS011;61650;48.882;2.092;2023-02-11T13:56:22;5.40;;;3.90;;
51558;SDS011;61650;48.882;2.092;2023-02-11T13:58:55;6.50;;;5.33;;
51558;SDS011;61650;48.882;2.092;2023-02-11T14:04:26;5.70;;;4.90;;
51558;SDS011;61650;48.882;2.092;2023-02-11T14:15:47;7.30;;;6.07;;
51558;SDS011;61650;48.882;2.092;2023-02-11T14:26:48;7.80;;;6.60;;
51558;SDS011;61650;48.882;2.092;2023-02-11T14:29:18;6.60;;;5.90;;
51558;SDS011;61650;48.882;2.092;2023-02-11T14:42:33;8.03;;;7.00;;
51558;SDS011;61650;48.882;2.092;2023-02-11T14:45:03;11.60;;;7.93;;
51558;SDS011;61650;48.882;2.092;2023-02-11T14:47:45;8.73;;;7.80;;
51558;SDS011;61650;48.882;2.092;2023-02-11T14:50:33;10.40;;;7.60;;
51558;SDS011;61650;48.882;2.092;2023-02-11T14:53:05;8.90;;;7.90;;
51558;SDS011;61650;48.882;2.092;2023-02-11T14:55:38;9.27;;;7.17;;
51558;SDS011;61650;48.882;2.092;2023-02-11T15:00:56;8.50;;;7.60;;
51558;SDS011;61650;48.882;2.092;2023-02-11T15:03:34;10.07;;;7.90;;
51558;SDS011;61650;48.882;2.092;2023-02-11T15:06:18;11.10;;;8.40;;
51558;SDS011;61650;48.882;2.092;2023-02-11T15:08:50;19.17;;;16.13;;
51558;SDS011;61650;48.882;2.092;2023-02-11T15:11:53;14.17;;;12.13;;
51558;SDS011;61650;48.882;2.092;2023-02-11T15:14:22;9.93;;;8.57;;
51558;SDS011;61650;48.882;2.092;2023-02-11T15:16:56;11.63;;;9.60;;
51558;SDS011;61650;48.882;2.092;2023-02-11T15:19:25;11.13;;;8.80;;
51558;SDS011;61650;48.882;2.092;2023-02-11T15:22:00;11.20;;;8.63;;
51558;SDS011;61650;48.882;2.092;2023-02-11T15:24:31;11.70;;;8.50;;
51558;SDS011;61650;48.882;2.092;2023-02-11T15:29:39;11.50;;;8.97;;
51558;SDS011;61650;48.882;2.092;2023-02-11T15:32:14;11.40;;;10.20;;
51558;SDS011;61650;48.882;2.092;2023-02-11T15:34:42;16.43;;;10.93;;
51558;SDS011;61650;48.882;2.092;2023-02-11T15:37:11;11.03;;;9.40;;
51558;SDS011;61650;48.882;2.092;2023-02-11T15:39:39;13.07;;;9.63;;
51558;SDS011;61650;48.882;2.092;2023-02-11T15:42:15;12.27;;;10.57;;
51558;SDS011;61650;48.882;2.092;2023-02-11T15:44:41;13.40;;;10.40;;
51558;SDS011;61650;48.882;2.092;2023-02-11T15:47:10;14.60;;;11.90;;
51558;SDS011;61650;48.882;2.092;2023-02-11T15:49:42;14.40;;;10.30;;
51558;SDS011;61650;48.882;2.092;2023-02-11T15:52:09;13.83;;;10.90;;
51558;SDS011;61650;48.882;2.092;2023-02-11T15:54:51;14.00;;;10.03;;
51558;SDS011;61650;48.882;2.092;2023-02-11T15:57:20;12.43;;;10.40;;
51558;SDS011;61650;48.882;2.092;2023-02-11T15:59:48;13.97;;;9.80;;
51558;SDS011;61650;48.882;2.092;2023-02-11T16:04:48;13.70;;;10.70;;
51558;SDS011;61650;48.882;2.092;2023-02-11T16:08:11;11.70;;;10.00;;
51558;SDS011;61650;48.882;2.092;2023-02-11T16:10:52;11.27;;;9.03;;
51558;SDS011;61650;48.882;2.092;2023-02-11T16:12:51;13.23;;;10.70;;
51558;SDS011;61650;48.882;2.092;2023-02-11T16:15:36;12.97;;;10.07;;
51558;SDS011;61650;48.882;2.092;2023-02-11T16:20:52;12.00;;;10.07;;
51558;SDS011;61650;48.882;2.092;2023-02-11T16:23:25;12.53;;;10.43;;
51558;SDS011;61650;48.882;2.092;2023-02-11T16:25:57;13.73;;;11.47;;
51558;SDS011;61650;48.882;2.092;2023-02-11T16:28:26;13.27;;;11.40;;
51558;SDS011;61650;48.882;2.092;2023-02-11T16:30:53;13.90;;;12.30;;
51558;SDS011;61650;48.882;2.092;2023-02-11T16:33:21;14.93;;;10.87;;
51558;SDS011;61650;48.882;2.092;2023-02-11T16:35:46;14.80;;;11.53;;
51558;SDS011;61650;48.882;2.092;2023-02-11T16:38:13;14.47;;;11.43;;
51558;SDS011;61650;48.882;2.092;2023-02-11T16:40:39;13.47;;;11.43;;
51558;SDS011;61650;48.882;2.092;2023-02-11T16:43:06;14.87;;;11.20;;
51558;SDS011;61650;48.882;2.092;2023-02-11T16:45:33;14.90;;;11.80;;
51558;SDS011;61650;48.882;2.092;2023-02-11T16:48:04;15.77;;;11.40;;
51558;SDS011;61650;48.882;2.092;2023-02-11T16:50:31;15.67;;;12.63;;
51558;SDS011;61650;48.882;2.092;2023-02-11T16:52:57;13.73;;;12.30;;
51558;SDS011;61650;48.882;2.092;2023-02-11T16:55:23;16.43;;;12.30;;
51558;SDS011;61650;48.882;2.092;2023-02-11T16:57:49;12.97;;;10.93;;
51558;SDS011;61650;48.882;2.092;2023-02-11T17:00:15;13.67;;;11.07;;
51558;SDS011;61650;48.882;2.092;2023-02-11T17:02:41;16.70;;;12.13;;
51558;SDS011;61650;48.882;2.092;2023-02-11T17:05:10;14.67;;;11.60;;
51558;SDS011;61650;48.882;2.092;2023-02-11T17:07:41;19.90;;;13.47;;
51558;SDS011;61650;48.882;2.092;2023-02-11T17:10:17;19.20;;;14.57;;
51558;SDS011;61650;48.882;2.092;2023-02-11T17:12:46;18.13;;;13.70;;
51558;SDS011;61650;48.882;2.092;2023-02-11T17:15:13;26.10;;;17.23;;